sensor_id;sensor_type;location;lat;lon;timestamp;temperature;humidity
43665;DHT22;29263;48.172;11.484;2022-12-18T00:00:58;-3.30;99.90
43665;DHT22;29263;48.172;11.484;2022-12-18T00:03:25;-3.40;99.90
43665;DHT22;29263;48.172;11.484;2022-12-18T00:05:51;-3.40;99.90
43665;DHT22;29263;48.172;11.484;2022-12-18T00:08:18;-3.40;99.90
43665;DHT22;29263;48.172;11.484;2022-12-18T00:10:44;-3.50;99.90
43665;DHT22;29263;48.172;11.484;2022-12-18T00:13:11;-3.50;99.90
43665;DHT22;29263;48.172;11.484;2022-12-18T00:15:38;-3.50;99.90
43665;DHT22;29263;48.172;11.484;2022-12-18T00:18:04;-3.50;99.90
43665;DHT22;29263;48.172;11.484;2022-12-18T00:20:30;-3.40;99.90
43665;DHT22;29263;48.172;11.484;2022-12-18T00:22:56;-3.50;99.90
43665;DHT22;29263;48.172;11.484;2022-12-18T00:25:22;-3.50;99.90
43665;DHT22;29263;48.172;11.484;2022-12-18T00:27:48;-3.50;99.90
43665;DHT22;29263;48.172;11.484;2022-12-18T00:30:13;-3.50;99.90
43665;DHT22;29263;48.172;11.484;2022-12-18T00:32:39;-3.50;99.90
43665;DHT22;29263;48.172;11.484;2022-12-18T00:35:06;-3.60;99.90
43665;DHT22;29263;48.172;11.484;2022-12-18T00:37:33;-3.70;99.90
43665;DHT22;29263;48.172;11.484;2022-12-18T00:39:59;-3.70;99.90
43665;DHT22;29263;48.172;11.484;2022-12-18T00:42:25;-3.70;99.90
43665;DHT22;29263;48.172;11.484;2022-12-18T00:45:10;-3.70;99.90
43665;DHT22;29263;48.172;11.484;2022-12-18T00:47:35;-3.80;99.90
43665;DHT22;29263;48.172;11.484;2022-12-18T00:50:01;-3.80;99.90
43665;DHT22;29263;48.172;11.484;2022-12-18T00:52:26;-3.80;99.90
43665;DHT22;29263;48.172;11.484;2022-12-18T00:54:52;-3.90;99.90
43665;DHT22;29263;48.172;11.484;2022-12-18T00:57:18;-3.80;99.90
43665;DHT22;29263;48.172;11.484;2022-12-18T00:59:43;-3.90;99.90
43665;DHT22;29263;48.172;11.484;2022-12-18T01:02:09;-3.90;99.90
43665;DHT22;29263;48.172;11.484;2022-12-18T01:04:34;-3.80;99.90
43665;DHT22;29263;48.172;11.484;2022-12-18T01:07:00;-3.80;99.90
43665;DHT22;29263;48.172;11.484;2022-12-18T01:09:26;-3.90;99.90
43665;DHT22;29263;48.172;11.484;2022-12-18T01:11:51;-3.90;99.90
43665;DHT22;29263;48.172;11.484;2022-12-18T01:14:17;-3.90;99.90
43665;DHT22;29263;48.172;11.484;2022-12-18T01:16:43;-3.90;99.90
43665;DHT22;29263;48.172;11.484;2022-12-18T01:19:08;-4.00;99.90
43665;DHT22;29263;48.172;11.484;2022-12-18T01:21:34;-3.90;99.90
43665;DHT22;29263;48.172;11.484;2022-12-18T01:23:59;-3.90;99.90
43665;DHT22;29263;48.172;11.484;2022-12-18T01:26:26;-3.90;99.90
43665;DHT22;29263;48.172;11.484;2022-12-18T01:28:55;-3.90;99.90
43665;DHT22;29263;48.172;11.484;2022-12-18T01:31:24;-4.00;99.90
43665;DHT22;29263;48.172;11.484;2022-12-18T01:33:51;-4.00;99.90
43665;DHT22;29263;48.172;11.484;2022-12-18T01:36:22;-3.90;99.90
43665;DHT22;29263;48.172;11.484;2022-12-18T01:38:49;-3.90;99.90
43665;DHT22;29263;48.172;11.484;2022-12-18T01:41:17;-4.00;99.90
43665;DHT22;29263;48.172;11.484;2022-12-18T01:43:49;-4.00;99.90
43665;DHT22;29263;48.172;11.484;2022-12-18T01:46:17;-4.00;99.90
43665;DHT22;29263;48.172;11.484;2022-12-18T01:48:45;-4.10;99.90
43665;DHT22;29263;48.172;11.484;2022-12-18T01:51:12;-4.00;99.90
43665;DHT22;29263;48.172;11.484;2022-12-18T01:53:40;-4.00;99.90
43665;DHT22;29263;48.172;11.484;2022-12-18T01:56:07;-4.00;99.90
43665;DHT22;29263;48.172;11.484;2022-12-18T02:01:20;-4.00;99.90
43665;DHT22;29263;48.172;11.484;2022-12-18T02:03:47;-4.00;99.90
43665;DHT22;29263;48.172;11.484;2022-12-18T02:06:24;-4.00;99.90
43665;DHT22;29263;48.172;11.484;2022-12-18T02:09:20;-3.90;99.90
43665;DHT22;29263;48.172;11.484;2022-12-18T02:11:56;-3.90;99.90
43665;DHT22;29263;48.172;11.484;2022-12-18T02:22:28;-3.80;99.90
43665;DHT22;29263;48.172;11.484;2022-12-18T02:28:04;-3.80;99.90
43665;DHT22;29263;48.172;11.484;2022-12-18T02:30:34;-3.80;99.90
43665;DHT22;29263;48.172;11.484;2022-12-18T02:33:01;-3.80;99.90
43665;DHT22;29263;48.172;11.484;2022-12-18T02:35:30;-3.70;99.90
43665;DHT22;29263;48.172;11.484;2022-12-18T02:37:56;-3.80;99.90
43665;DHT22;29263;48.172;11.484;2022-12-18T02:40:25;-3.80;99.90
43665;DHT22;29263;48.172;11.484;2022-12-18T02:42:52;-3.80;99.90
43665;DHT22;29263;48.172;11.484;2022-12-18T02:45:18;-3.80;99.90
43665;DHT22;29263;48.172;11.484;2022-12-18T02:47:46;-3.80;99.90
43665;DHT22;29263;48.172;11.484;2022-12-18T02:50:37;-3.80;99.90
43665;DHT22;29263;48.172;11.484;2022-12-18T02:53:30;-3.80;99.90
43665;DHT22;29263;48.172;11.484;2022-12-18T02:56:06;-3.80;99.90
43665;DHT22;29263;48.172;11.484;2022-12-18T02:58:55;-3.70;99.90
43665;DHT22;29263;48.172;11.484;2022-12-18T03:01:33;-3.80;99.90
43665;DHT22;29263;48.172;11.484;2022-12-18T03:04:13;-3.80;99.90
43665;DHT22;29263;48.172;11.484;2022-12-18T03:06:44;-3.80;99.90
43665;DHT22;29263;48.172;11.484;2022-12-18T03:09:17;-3.80;99.90
43665;DHT22;29263;48.172;11.484;2022-12-18T03:11:48;-3.80;99.90
43665;DHT22;29263;48.172;11.484;2022-12-18T03:14:36;-3.80;99.90
43665;DHT22;29263;48.172;11.484;2022-12-18T03:17:05;-3.80;99.90
43665;DHT22;29263;48.172;11.484;2022-12-18T03:19:38;-3.80;99.90
43665;DHT22;29263;48.172;11.484;2022-12-18T03:22:07;-3.80;99.90
43665;DHT22;29263;48.172;11.484;2022-12-18T03:24:33;-3.80;99.90
43665;DHT22;29263;48.172;11.484;2022-12-18T03:27:02;-3.80;99.90
43665;DHT22;29263;48.172;11.484;2022-12-18T03:29:37;-3.80;99.90
43665;DHT22;29263;48.172;11.484;2022-12-18T03:32:08;-3.80;99.90
43665;DHT22;29263;48.172;11.484;2022-12-18T03:34:37;-3.80;99.90
43665;DHT22;29263;48.172;11.484;2022-12-18T03:37:05;-3.80;99.90
43665;DHT22;29263;48.172;11.484;2022-12-18T03:39:32;-3.80;99.90
43665;DHT22;29263;48.172;11.484;2022-12-18T03:42:00;-3.80;99.90
43665;DHT22;29263;48.172;11.484;2022-12-18T03:44:38;-3.80;99.90
43665;DHT22;29263;48.172;11.484;2022-12-18T03:47:23;-3.70;99.90
43665;DHT22;29263;48.172;11.484;2022-12-18T03:50:06;-3.80;99.90
43665;DHT22;29263;48.172;11.484;2022-12-18T03:52:40;-3.80;99.90
43665;DHT22;29263;48.172;11.484;2022-12-18T03:55:09;-3.80;99.90
43665;DHT22;29263;48.172;11.484;2022-12-18T03:57:35;-3.80;99.90
43665;DHT22;29263;48.172;11.484;2022-12-18T04:00:11;-3.80;99.90
43665;DHT22;29263;48.172;11.484;2022-12-18T04:02:38;-3.80;99.90
43665;DHT22;29263;48.172;11.484;2022-12-18T04:05:07;-3.80;99.90
43665;DHT22;29263;48.172;11.484;2022-12-18T04:07:34;-3.80;99.90
43665;DHT22;29263;48.172;11.484;2022-12-18T04:10:01;-3.80;99.90
43665;DHT22;29263;48.172;11.484;2022-12-18T04:12:29;-3.80;99.90
43665;DHT22;29263;48.172;11.484;2022-12-18T04:14:54;-3.70;99.90
43665;DHT22;29263;48.172;11.484;2022-12-18T04:17:20;-3.70;99.90
43665;DHT22;29263;48.172;11.484;2022-12-18T04:19:46;-3.70;99.90
43665;DHT22;29263;48.172;11.484;2022-12-18T04:22:12;-3.80;99.90
43665;DHT22;29263;48.172;11.484;2022-12-18T04:24:38;-3.80;99.90
43665;DHT22;29263;48.172;11.484;2022-12-18T04:27:03;-3.80;99.90
43665;DHT22;29263;48.172;11.484;2022-12-18T04:29:29;-3.80;99.90
43665;DHT22;29263;48.172;11.484;2022-12-18T04:31:54;-3.80;99.90
43665;DHT22;29263;48.172;11.484;2022-12-18T04:34:21;-3.80;99.90
43665;DHT22;29263;48.172;11.484;2022-12-18T04:36:46;-3.80;99.90
43665;DHT22;29263;48.172;11.484;2022-12-18T04:39:12;-3.80;99.90
43665;DHT22;29263;48.172;11.484;2022-12-18T04:41:38;-3.80;99.90
43665;DHT22;29263;48.172;11.484;2022-12-18T04:44:04;-3.70;99.90
43665;DHT22;29263;48.172;11.484;2022-12-18T04:46:30;-3.80;99.90
43665;DHT22;29263;48.172;11.484;2022-12-18T04:48:55;-3.80;99.90
43665;DHT22;29263;48.172;11.484;2022-12-18T04:51:21;-3.80;99.90
43665;DHT22;29263;48.172;11.484;2022-12-18T04:53:47;-3.80;99.90
43665;DHT22;29263;48.172;11.484;2022-12-18T04:56:14;-3.70;99.90
43665;DHT22;29263;48.172;11.484;2022-12-18T04:58:41;-3.70;99.90
43665;DHT22;29263;48.172;11.484;2022-12-18T05:01:08;-3.70;99.90
43665;DHT22;29263;48.172;11.484;2022-12-18T05:03:34;-3.70;99.90
43665;DHT22;29263;48.172;11.484;2022-12-18T05:06:00;-3.70;99.90
43665;DHT22;29263;48.172;11.484;2022-12-18T05:08:26;-3.70;99.90
43665;DHT22;29263;48.172;11.484;2022-12-18T05:11:16;-3.70;99.90
43665;DHT22;29263;48.172;11.484;2022-12-18T05:13:43;-3.70;99.90
43665;DHT22;29263;48.172;11.484;2022-12-18T05:16:09;-3.70;99.90
43665;DHT22;29263;48.172;11.484;2022-12-18T05:18:35;-3.70;99.90
43665;DHT22;29263;48.172;11.484;2022-12-18T05:21:01;-3.70;99.90
43665;DHT22;29263;48.172;11.484;2022-12-18T05:23:27;-3.70;99.90
43665;DHT22;29263;48.172;11.484;2022-12-18T05:25:58;-3.70;99.90
43665;DHT22;29263;48.172;11.484;2022-12-18T05:28:25;-3.80;99.90
43665;DHT22;29263;48.172;11.484;2022-12-18T05:30:52;-3.80;99.90
43665;DHT22;29263;48.172;11.484;2022-12-18T05:33:19;-3.80;99.90
43665;DHT22;29263;48.172;11.484;2022-12-18T05:35:50;-3.80;99.90
43665;DHT22;29263;48.172;11.484;2022-12-18T05:38:17;-3.80;99.90
43665;DHT22;29263;48.172;11.484;2022-12-18T05:40:43;-3.70;99.90
43665;DHT22;29263;48.172;11.484;2022-12-18T05:43:09;-3.70;99.90
43665;DHT22;29263;48.172;11.484;2022-12-18T05:45:40;-3.70;99.90
43665;DHT22;29263;48.172;11.484;2022-12-18T05:48:06;-3.80;99.90
43665;DHT22;29263;48.172;11.484;2022-12-18T05:50:35;-3.70;99.90
43665;DHT22;29263;48.172;11.484;2022-12-18T05:53:02;-3.70;99.90
43665;DHT22;29263;48.172;11.484;2022-12-18T05:55:27;-3.70;99.90
43665;DHT22;29263;48.172;11.484;2022-12-18T05:57:53;-3.70;99.90
43665;DHT22;29263;48.172;11.484;2022-12-18T06:00:19;-3.70;99.90
43665;DHT22;29263;48.172;11.484;2022-12-18T06:02:47;-3.80;99.90
43665;DHT22;29263;48.172;11.484;2022-12-18T06:05:13;-3.70;99.90
43665;DHT22;29263;48.172;11.484;2022-12-18T06:07:39;-3.80;99.90
43665;DHT22;29263;48.172;11.484;2022-12-18T06:10:05;-3.80;99.90
43665;DHT22;29263;48.172;11.484;2022-12-18T06:12:31;-3.70;99.90
43665;DHT22;29263;48.172;11.484;2022-12-18T06:14:59;-3.70;99.90
43665;DHT22;29263;48.172;11.484;2022-12-18T06:17:30;-3.70;99.90
43665;DHT22;29263;48.172;11.484;2022-12-18T06:19:57;-3.70;99.90
43665;DHT22;29263;48.172;11.484;2022-12-18T06:22:23;-3.60;99.90
43665;DHT22;29263;48.172;11.484;2022-12-18T06:24:48;-3.70;99.90
43665;DHT22;29263;48.172;11.484;2022-12-18T06:27:14;-3.70;99.90
43665;DHT22;29263;48.172;11.484;2022-12-18T06:29:40;-3.70;99.90
43665;DHT22;29263;48.172;11.484;2022-12-18T06:32:06;-3.80;99.90
43665;DHT22;29263;48.172;11.484;2022-12-18T06:34:32;-3.70;99.90
43665;DHT22;29263;48.172;11.484;2022-12-18T06:36:57;-3.70;99.90
43665;DHT22;29263;48.172;11.484;2022-12-18T06:39:23;-3.70;99.90
43665;DHT22;29263;48.172;11.484;2022-12-18T06:41:49;-3.70;99.90
43665;DHT22;29263;48.172;11.484;2022-12-18T06:44:14;-3.80;99.90
43665;DHT22;29263;48.172;11.484;2022-12-18T06:46:40;-3.80;99.90
43665;DHT22;29263;48.172;11.484;2022-12-18T06:49:06;-3.70;99.90
43665;DHT22;29263;48.172;11.484;2022-12-18T06:51:32;-3.70;99.90
43665;DHT22;29263;48.172;11.484;2022-12-18T06:53:57;-3.80;99.90
43665;DHT22;29263;48.172;11.484;2022-12-18T06:56:23;-3.70;99.90
43665;DHT22;29263;48.172;11.484;2022-12-18T06:58:52;-3.70;99.90
43665;DHT22;29263;48.172;11.484;2022-12-18T07:01:18;-3.70;99.90
43665;DHT22;29263;48.172;11.484;2022-12-18T07:03:43;-3.70;99.90
43665;DHT22;29263;48.172;11.484;2022-12-18T07:06:18;-3.70;99.90
43665;DHT22;29263;48.172;11.484;2022-12-18T07:08:45;-3.70;99.90
43665;DHT22;29263;48.172;11.484;2022-12-18T07:11:11;-3.80;99.90
43665;DHT22;29263;48.172;11.484;2022-12-18T07:13:37;-3.80;99.90
43665;DHT22;29263;48.172;11.484;2022-12-18T07:16:25;-3.80;99.90
43665;DHT22;29263;48.172;11.484;2022-12-18T07:18:50;-3.80;99.90
43665;DHT22;29263;48.172;11.484;2022-12-18T07:21:18;-3.80;99.90
43665;DHT22;29263;48.172;11.484;2022-12-18T07:23:44;-3.90;99.90
43665;DHT22;29263;48.172;11.484;2022-12-18T07:26:13;-3.90;99.90
43665;DHT22;29263;48.172;11.484;2022-12-18T07:28:41;-3.90;99.90
43665;DHT22;29263;48.172;11.484;2022-12-18T07:31:09;-4.00;99.90
43665;DHT22;29263;48.172;11.484;2022-12-18T07:33:35;-3.90;99.90
43665;DHT22;29263;48.172;11.484;2022-12-18T07:36:02;-3.90;99.90
43665;DHT22;29263;48.172;11.484;2022-12-18T07:38:29;-3.80;99.90
43665;DHT22;29263;48.172;11.484;2022-12-18T07:40:54;-3.90;99.90
43665;DHT22;29263;48.172;11.484;2022-12-18T07:43:20;-3.80;99.90
43665;DHT22;29263;48.172;11.484;2022-12-18T07:45:49;-3.80;99.90
43665;DHT22;29263;48.172;11.484;2022-12-18T07:48:15;-3.90;99.90
43665;DHT22;29263;48.172;11.484;2022-12-18T07:50:40;-3.90;99.90
43665;DHT22;29263;48.172;11.484;2022-12-18T07:53:06;-3.90;99.90
43665;DHT22;29263;48.172;11.484;2022-12-18T07:55:31;-3.90;99.90
43665;DHT22;29263;48.172;11.484;2022-12-18T07:58:00;-3.90;99.90
43665;DHT22;29263;48.172;11.484;2022-12-18T08:00:26;-3.80;99.90
43665;DHT22;29263;48.172;11.484;2022-12-18T08:02:52;-3.80;99.90
43665;DHT22;29263;48.172;11.484;2022-12-18T08:05:17;-3.80;99.90
43665;DHT22;29263;48.172;11.484;2022-12-18T08:07:43;-3.80;99.90
43665;DHT22;29263;48.172;11.484;2022-12-18T08:10:09;-3.90;99.90
43665;DHT22;29263;48.172;11.484;2022-12-18T08:12:34;-3.90;99.90
43665;DHT22;29263;48.172;11.484;2022-12-18T08:15:00;-3.90;99.90
43665;DHT22;29263;48.172;11.484;2022-12-18T08:17:25;-3.90;99.90
43665;DHT22;29263;48.172;11.484;2022-12-18T08:19:51;-3.90;99.90
43665;DHT22;29263;48.172;11.484;2022-12-18T08:22:17;-4.00;99.90
43665;DHT22;29263;48.172;11.484;2022-12-18T08:24:42;-3.90;99.90
43665;DHT22;29263;48.172;11.484;2022-12-18T08:27:08;-3.90;99.90
43665;DHT22;29263;48.172;11.484;2022-12-18T08:29:33;-3.80;99.90
43665;DHT22;29263;48.172;11.484;2022-12-18T08:31:59;-3.80;99.90
43665;DHT22;29263;48.172;11.484;2022-12-18T08:34:25;-3.70;99.90
43665;DHT22;29263;48.172;11.484;2022-12-18T08:36:50;-3.70;99.90
43665;DHT22;29263;48.172;11.484;2022-12-18T08:39:16;-3.70;99.90
43665;DHT22;29263;48.172;11.484;2022-12-18T08:41:42;-3.60;99.90
43665;DHT22;29263;48.172;11.484;2022-12-18T08:44:08;-3.60;99.90
43665;DHT22;29263;48.172;11.484;2022-12-18T08:46:51;-3.60;99.90
43665;DHT22;29263;48.172;11.484;2022-12-18T08:49:17;-3.60;99.90
43665;DHT22;29263;48.172;11.484;2022-12-18T08:51:43;-3.60;99.90
43665;DHT22;29263;48.172;11.484;2022-12-18T08:54:12;-3.50;99.90
43665;DHT22;29263;48.172;11.484;2022-12-18T08:56:38;-3.40;99.90
43665;DHT22;29263;48.172;11.484;2022-12-18T08:59:04;-3.40;99.90
43665;DHT22;29263;48.172;11.484;2022-12-18T09:01:30;-3.40;99.90
43665;DHT22;29263;48.172;11.484;2022-12-18T09:03:56;-3.30;99.90
43665;DHT22;29263;48.172;11.484;2022-12-18T09:06:22;-3.30;99.90
43665;DHT22;29263;48.172;11.484;2022-12-18T09:08:48;-3.30;99.90
43665;DHT22;29263;48.172;11.484;2022-12-18T09:11:22;-3.40;99.90
43665;DHT22;29263;48.172;11.484;2022-12-18T09:13:49;-3.40;99.90
43665;DHT22;29263;48.172;11.484;2022-12-18T09:16:15;-3.30;99.90
43665;DHT22;29263;48.172;11.484;2022-12-18T09:18:41;-3.40;99.90
43665;DHT22;29263;48.172;11.484;2022-12-18T09:21:14;-3.30;99.90
43665;DHT22;29263;48.172;11.484;2022-12-18T09:23:41;-3.30;99.90
43665;DHT22;29263;48.172;11.484;2022-12-18T09:26:07;-3.20;99.90
43665;DHT22;29263;48.172;11.484;2022-12-18T09:28:32;-3.20;99.90
43665;DHT22;29263;48.172;11.484;2022-12-18T09:30:58;-3.10;99.90
43665;DHT22;29263;48.172;11.484;2022-12-18T09:33:24;-3.10;99.90
43665;DHT22;29263;48.172;11.484;2022-12-18T09:35:49;-3.10;99.90
43665;DHT22;29263;48.172;11.484;2022-12-18T09:38:17;-3.20;99.90
43665;DHT22;29263;48.172;11.484;2022-12-18T09:40:46;-3.10;99.90
43665;DHT22;29263;48.172;11.484;2022-12-18T09:43:19;-3.10;99.90
43665;DHT22;29263;48.172;11.484;2022-12-18T09:45:49;-3.00;99.90
43665;DHT22;29263;48.172;11.484;2022-12-18T09:48:24;-3.00;99.90
43665;DHT22;29263;48.172;11.484;2022-12-18T09:50:51;-3.00;99.90
43665;DHT22;29263;48.172;11.484;2022-12-18T09:53:24;-3.00;99.90
43665;DHT22;29263;48.172;11.484;2022-12-18T09:55:51;-3.00;99.90
43665;DHT22;29263;48.172;11.484;2022-12-18T09:58:47;-2.90;99.90
43665;DHT22;29263;48.172;11.484;2022-12-18T10:01:18;-2.90;99.90
43665;DHT22;29263;48.172;11.484;2022-12-18T10:03:45;-2.80;99.90
43665;DHT22;29263;48.172;11.484;2022-12-18T10:06:18;-2.80;99.90
43665;DHT22;29263;48.172;11.484;2022-12-18T10:11:32;-2.90;99.90
43665;DHT22;29263;48.172;11.484;2022-12-18T10:14:17;-2.90;99.90
43665;DHT22;29263;48.172;11.484;2022-12-18T10:17:04;-2.90;99.90
43665;DHT22;29263;48.172;11.484;2022-12-18T10:27:22;-2.80;99.90
43665;DHT22;29263;48.172;11.484;2022-12-18T10:29:48;-2.70;99.90
43665;DHT22;29263;48.172;11.484;2022-12-18T10:32:18;-2.70;99.90
43665;DHT22;29263;48.172;11.484;2022-12-18T10:34:48;-2.70;99.90
43665;DHT22;29263;48.172;11.484;2022-12-18T10:37:20;-2.80;99.90
43665;DHT22;29263;48.172;11.484;2022-12-18T10:42:33;-2.80;99.90
43665;DHT22;29263;48.172;11.484;2022-12-18T10:45:16;-2.90;99.90
43665;DHT22;29263;48.172;11.484;2022-12-18T10:47:48;-2.90;99.90
43665;DHT22;29263;48.172;11.484;2022-12-18T10:50:31;-2.80;99.90
43665;DHT22;29263;48.172;11.484;2022-12-18T10:53:00;-2.80;99.90
43665;DHT22;29263;48.172;11.484;2022-12-18T10:55:39;-2.70;99.90
43665;DHT22;29263;48.172;11.484;2022-12-18T10:58:21;-2.70;99.90
43665;DHT22;29263;48.172;11.484;2022-12-18T11:01:17;-2.60;99.90
43665;DHT22;29263;48.172;11.484;2022-12-18T11:06:21;-2.50;99.90
43665;DHT22;29263;48.172;11.484;2022-12-18T11:09:04;-2.50;99.90
43665;DHT22;29263;48.172;11.484;2022-12-18T11:11:32;-2.50;99.90
43665;DHT22;29263;48.172;11.484;2022-12-18T11:14:02;-2.50;99.90
43665;DHT22;29263;48.172;11.484;2022-12-18T11:16:30;-2.50;99.90
43665;DHT22;29263;48.172;11.484;2022-12-18T11:19:30;-2.50;99.90
43665;DHT22;29263;48.172;11.484;2022-12-18T11:21:57;-2.60;99.90
43665;DHT22;29263;48.172;11.484;2022-12-18T11:24:29;-2.60;99.90
43665;DHT22;29263;48.172;11.484;2022-12-18T11:26:58;-2.60;99.90
43665;DHT22;29263;48.172;11.484;2022-12-18T11:29:46;-2.70;99.90
43665;DHT22;29263;48.172;11.484;2022-12-18T11:32:31;-2.80;99.90
43665;DHT22;29263;48.172;11.484;2022-12-18T11:37:53;-2.70;99.90
43665;DHT22;29263;48.172;11.484;2022-12-18T11:40:30;-2.70;99.90
43665;DHT22;29263;48.172;11.484;2022-12-18T11:43:06;-2.70;99.90
43665;DHT22;29263;48.172;11.484;2022-12-18T11:45:36;-2.60;99.90
43665;DHT22;29263;48.172;11.484;2022-12-18T11:48:22;-2.80;99.90
43665;DHT22;29263;48.172;11.484;2022-12-18T11:50:52;-2.90;99.90
43665;DHT22;29263;48.172;11.484;2022-12-18T11:53:19;-2.80;99.90
43665;DHT22;29263;48.172;11.484;2022-12-18T12:01:53;-2.60;99.90
43665;DHT22;29263;48.172;11.484;2022-12-18T12:04:50;-2.50;99.90
43665;DHT22;29263;48.172;11.484;2022-12-18T12:07:24;-2.60;99.90
43665;DHT22;29263;48.172;11.484;2022-12-18T12:10:04;-2.60;99.90
43665;DHT22;29263;48.172;11.484;2022-12-18T12:18:16;-2.50;99.90
43665;DHT22;29263;48.172;11.484;2022-12-18T12:21:04;-2.50;99.90
43665;DHT22;29263;48.172;11.484;2022-12-18T12:26:16;-2.40;99.90
43665;DHT22;29263;48.172;11.484;2022-12-18T12:28:52;-2.60;99.90
43665;DHT22;29263;48.172;11.484;2022-12-18T12:31:45;-2.70;99.90
43665;DHT22;29263;48.172;11.484;2022-12-18T12:34:29;-2.70;99.90
43665;DHT22;29263;48.172;11.484;2022-12-18T12:39:32;-2.70;99.90
43665;DHT22;29263;48.172;11.484;2022-12-18T12:41:59;-2.60;99.90
43665;DHT22;29263;48.172;11.484;2022-12-18T12:44:50;-2.70;99.90
43665;DHT22;29263;48.172;11.484;2022-12-18T12:47:25;-2.70;99.90
43665;DHT22;29263;48.172;11.484;2022-12-18T12:49:52;-2.80;99.90
43665;DHT22;29263;48.172;11.484;2022-12-18T12:52:38;-2.80;99.90
43665;DHT22;29263;48.172;11.484;2022-12-18T12:55:14;-2.80;99.90
43665;DHT22;29263;48.172;11.484;2022-12-18T12:57:46;-2.80;99.90
43665;DHT22;29263;48.172;11.484;2022-12-18T13:00:17;-2.70;99.90
43665;DHT22;29263;48.172;11.484;2022-12-18T13:05:38;-2.70;99.90
43665;DHT22;29263;48.172;11.484;2022-12-18T13:08:11;-2.60;99.90
43665;DHT22;29263;48.172;11.484;2022-12-18T13:10:39;-2.60;99.90
43665;DHT22;29263;48.172;11.484;2022-12-18T13:13:10;-2.90;99.90
43665;DHT22;29263;48.172;11.484;2022-12-18T13:15:45;-3.00;99.90
43665;DHT22;29263;48.172;11.484;2022-12-18T13:26:28;-3.00;99.90
43665;DHT22;29263;48.172;11.484;2022-12-18T13:34:15;-3.10;99.90
43665;DHT22;29263;48.172;11.484;2022-12-18T13:36:41;-3.10;99.90
43665;DHT22;29263;48.172;11.484;2022-12-18T13:39:36;-3.10;99.90
43665;DHT22;29263;48.172;11.484;2022-12-18T13:44:37;-3.00;99.90
43665;DHT22;29263;48.172;11.484;2022-12-18T13:47:24;-3.00;99.90
43665;DHT22;29263;48.172;11.484;2022-12-18T13:49:51;-3.00;99.90
43665;DHT22;29263;48.172;11.484;2022-12-18T13:52:38;-3.00;99.90
43665;DHT22;29263;48.172;11.484;2022-12-18T13:55:10;-2.90;99.90
43665;DHT22;29263;48.172;11.484;2022-12-18T13:57:40;-3.00;99.90
43665;DHT22;29263;48.172;11.484;2022-12-18T14:02:47;-3.00;99.90
43665;DHT22;29263;48.172;11.484;2022-12-18T14:05:28;-3.10;99.90
43665;DHT22;29263;48.172;11.484;2022-12-18T14:08:09;-3.10;99.90
43665;DHT22;29263;48.172;11.484;2022-12-18T14:10:43;-3.10;99.90
43665;DHT22;29263;48.172;11.484;2022-12-18T14:13:10;-3.10;99.90
43665;DHT22;29263;48.172;11.484;2022-12-18T14:15:45;-3.10;99.90
43665;DHT22;29263;48.172;11.484;2022-12-18T14:20:47;-3.20;99.90
43665;DHT22;29263;48.172;11.484;2022-12-18T14:26:24;-3.20;99.90
43665;DHT22;29263;48.172;11.484;2022-12-18T14:28:47;-3.30;99.90
43665;DHT22;29263;48.172;11.484;2022-12-18T14:31:20;-3.30;99.90
43665;DHT22;29263;48.172;11.484;2022-12-18T14:33:46;-3.30;99.90
43665;DHT22;29263;48.172;11.484;2022-12-18T14:36:17;-3.30;99.90
43665;DHT22;29263;48.172;11.484;2022-12-18T14:38:43;-3.40;99.90
43665;DHT22;29263;48.172;11.484;2022-12-18T14:41:15;-3.30;99.90
43665;DHT22;29263;48.172;11.484;2022-12-18T14:43:43;-3.30;99.90
43665;DHT22;29263;48.172;11.484;2022-12-18T14:46:36;-3.40;99.90
43665;DHT22;29263;48.172;11.484;2022-12-18T14:49:21;-3.50;99.90
43665;DHT22;29263;48.172;11.484;2022-12-18T14:51:52;-3.50;99.90
43665;DHT22;29263;48.172;11.484;2022-12-18T14:54:19;-3.50;99.90
43665;DHT22;29263;48.172;11.484;2022-12-18T14:56:51;-3.40;99.90
43665;DHT22;29263;48.172;11.484;2022-12-18T14:59:20;-3.50;99.90
43665;DHT22;29263;48.172;11.484;2022-12-18T15:04:34;-3.20;99.90
43665;DHT22;29263;48.172;11.484;2022-12-18T15:10:23;-3.20;99.90
43665;DHT22;29263;48.172;11.484;2022-12-18T15:13:07;-3.20;99.90
43665;DHT22;29263;48.172;11.484;2022-12-18T15:20:57;-3.50;99.90
43665;DHT22;29263;48.172;11.484;2022-12-18T15:26:10;-3.50;99.90
43665;DHT22;29263;48.172;11.484;2022-12-18T15:28:53;-3.60;99.90
43665;DHT22;29263;48.172;11.484;2022-12-18T15:31:24;-3.60;99.90
43665;DHT22;29263;48.172;11.484;2022-12-18T15:36:21;-3.60;99.90
43665;DHT22;29263;48.172;11.484;2022-12-18T15:38:48;-3.70;99.90
43665;DHT22;29263;48.172;11.484;2022-12-18T15:41:16;-3.70;99.90
43665;DHT22;29263;48.172;11.484;2022-12-18T15:43:42;-3.70;99.90
43665;DHT22;29263;48.172;11.484;2022-12-18T15:46:18;-3.70;99.90
43665;DHT22;29263;48.172;11.484;2022-12-18T15:48:50;-3.70;99.90
43665;DHT22;29263;48.172;11.484;2022-12-18T15:51:34;-3.70;99.90
43665;DHT22;29263;48.172;11.484;2022-12-18T15:54:03;-3.70;99.90
43665;DHT22;29263;48.172;11.484;2022-12-18T15:56:30;-3.70;99.90
43665;DHT22;29263;48.172;11.484;2022-12-18T15:59:17;-3.70;99.90
43665;DHT22;29263;48.172;11.484;2022-12-18T16:01:46;-3.70;99.90
43665;DHT22;29263;48.172;11.484;2022-12-18T16:04:14;-3.60;99.90
43665;DHT22;29263;48.172;11.484;2022-12-18T16:06:40;-3.60;99.90
43665;DHT22;29263;48.172;11.484;2022-12-18T16:09:06;-3.60;99.90
43665;DHT22;29263;48.172;11.484;2022-12-18T16:11:33;-3.60;99.90
43665;DHT22;29263;48.172;11.484;2022-12-18T16:14:23;-3.50;99.90
43665;DHT22;29263;48.172;11.484;2022-12-18T16:16:53;-3.60;99.90
43665;DHT22;29263;48.172;11.484;2022-12-18T16:19:19;-3.70;99.90
43665;DHT22;29263;48.172;11.484;2022-12-18T16:21:47;-3.70;99.90
43665;DHT22;29263;48.172;11.484;2022-12-18T16:24:22;-3.70;99.90
43665;DHT22;29263;48.172;11.484;2022-12-18T16:26:49;-3.80;99.90
43665;DHT22;29263;48.172;11.484;2022-12-18T16:29:17;-3.70;99.90
43665;DHT22;29263;48.172;11.484;2022-12-18T16:31:43;-3.70;99.90
43665;DHT22;29263;48.172;11.484;2022-12-18T16:34:23;-3.70;99.90
43665;DHT22;29263;48.172;11.484;2022-12-18T16:36:52;-3.70;99.90
43665;DHT22;29263;48.172;11.484;2022-12-18T16:39:21;-3.60;99.90
43665;DHT22;29263;48.172;11.484;2022-12-18T16:41:47;-3.70;99.90
43665;DHT22;29263;48.172;11.484;2022-12-18T16:44:13;-3.70;99.90
43665;DHT22;29263;48.172;11.484;2022-12-18T16:46:40;-3.60;99.90
43665;DHT22;29263;48.172;11.484;2022-12-18T16:49:08;-3.70;99.90
43665;DHT22;29263;48.172;11.484;2022-12-18T16:51:35;-3.70;99.90
43665;DHT22;29263;48.172;11.484;2022-12-18T16:54:01;-3.70;99.90
43665;DHT22;29263;48.172;11.484;2022-12-18T16:56:27;-3.70;99.90
43665;DHT22;29263;48.172;11.484;2022-12-18T16:58:54;-3.70;99.90
43665;DHT22;29263;48.172;11.484;2022-12-18T17:01:20;-3.80;99.90
43665;DHT22;29263;48.172;11.484;2022-12-18T17:03:57;-3.90;99.90
43665;DHT22;29263;48.172;11.484;2022-12-18T17:06:24;-3.90;99.90